createdAt,value
2018-02-04T00:02:05.078Z,17.11
2018-02-04T00:04:32.619Z,17.09
2018-02-04T00:07:00.322Z,17.09
2018-02-04T00:09:27.846Z,17.04
2018-02-04T00:11:55.375Z,17.09
2018-02-04T00:14:22.897Z,17.10
2018-02-04T00:16:50.510Z,17.08
2018-02-04T00:19:18.174Z,17.00
2018-02-04T00:21:46.396Z,16.99
2018-02-04T00:24:14.130Z,16.99
2018-02-04T00:26:41.652Z,16.98
2018-02-04T00:29:09.201Z,16.96
2018-02-04T00:31:36.755Z,16.94
2018-02-04T00:34:04.560Z,16.92
2018-02-04T00:36:32.227Z,16.89
2018-02-04T00:38:59.836Z,16.92
2018-02-04T00:41:27.371Z,16.91
2018-02-04T00:43:54.900Z,16.89
2018-02-04T00:46:22.416Z,16.88
2018-02-04T00:48:50.098Z,16.83
2018-02-04T00:51:17.664Z,16.87
2018-02-04T00:53:45.178Z,16.85
2018-02-04T00:56:12.707Z,16.85
2018-02-04T00:58:40.263Z,16.84
2018-02-04T01:01:07.909Z,16.77
2018-02-04T01:03:36.321Z,16.80
2018-02-04T01:06:03.874Z,16.80
2018-02-04T01:08:31.385Z,16.79
2018-02-04T01:10:59.138Z,16.76
2018-02-04T01:13:26.811Z,16.74
2018-02-04T01:15:54.596Z,16.73
2018-02-04T01:18:22.435Z,16.64
2018-02-04T01:20:49.937Z,16.63
2018-02-04T01:23:17.695Z,16.55
2018-02-04T01:25:45.352Z,16.53
2018-02-04T01:28:12.912Z,16.49
2018-02-04T01:30:40.596Z,16.39
2018-02-04T01:33:08.123Z,16.34
2018-02-04T01:35:35.642Z,16.27
2018-02-04T01:38:03.366Z,16.21
2018-02-04T01:40:30.889Z,16.14
2018-02-04T01:42:58.529Z,16.06
2018-02-04T01:45:26.072Z,16.02
2018-02-04T01:48:05.619Z,15.92
2018-02-04T01:50:33.373Z,15.88
2018-02-04T01:53:01.271Z,15.80
2018-02-04T01:55:29.019Z,15.74
2018-02-04T01:57:56.563Z,15.71
2018-02-04T02:00:24.209Z,15.66
2018-02-04T02:02:52.165Z,15.65
2018-02-04T02:05:19.707Z,15.58
2018-02-04T02:07:47.269Z,15.57
2018-02-04T02:10:14.785Z,15.53
2018-02-04T02:12:43.464Z,15.51
2018-02-04T02:15:10.992Z,15.47
2018-02-04T02:17:38.908Z,15.44
2018-02-04T02:20:06.425Z,15.47
2018-02-04T02:22:33.993Z,15.48
2018-02-04T02:25:01.672Z,15.45
2018-02-04T02:27:29.215Z,15.37
2018-02-04T02:29:56.777Z,15.34
2018-02-04T02:32:24.540Z,15.30
2018-02-04T02:34:52.060Z,15.27
2018-02-04T02:37:19.706Z,15.21
2018-02-04T02:39:47.227Z,15.20
2018-02-04T02:42:14.737Z,15.15
2018-02-04T02:44:42.263Z,15.13
2018-02-04T02:47:10.011Z,15.13
2018-02-04T02:49:37.709Z,15.09
2018-02-04T02:52:05.248Z,15.07
2018-02-04T02:54:33.136Z,15.03
2018-02-04T02:57:00.665Z,15.05
2018-02-04T02:59:28.196Z,15.04
2018-02-04T03:01:55.879Z,15.03
2018-02-04T03:04:23.683Z,15.00
2018-02-04T03:06:51.191Z,15.00
2018-02-04T03:09:19.807Z,15.02
2018-02-04T03:11:47.376Z,15.01
2018-02-04T03:14:15.022Z,15.02
2018-02-04T03:16:42.875Z,14.99
2018-02-04T03:19:10.381Z,14.99
2018-02-04T03:21:38.131Z,14.96
2018-02-04T03:24:05.915Z,14.97
2018-02-04T03:26:33.588Z,14.97
2018-02-04T03:29:01.127Z,14.95
2018-02-04T03:31:28.790Z,14.95
2018-02-04T03:33:56.313Z,14.95
2018-02-04T03:36:23.845Z,14.96
2018-02-04T03:38:51.370Z,14.96
2018-02-04T03:41:18.900Z,14.95
2018-02-04T03:43:46.405Z,14.91
2018-02-04T03:46:13.935Z,14.90
2018-02-04T03:48:41.459Z,14.89
2018-02-04T03:51:08.977Z,14.89
2018-02-04T03:53:36.492Z,14.89
2018-02-04T03:56:04.065Z,14.86
2018-02-04T03:58:31.588Z,14.86
2018-02-04T04:00:59.404Z,14.85
2018-02-04T04:03:26.940Z,14.85
2018-02-04T04:05:54.606Z,14.80
2018-02-04T04:08:22.131Z,14.81
2018-02-04T04:10:49.874Z,14.77
2018-02-04T04:13:17.399Z,14.78
2018-02-04T04:15:45.806Z,14.75
2018-02-04T04:18:13.471Z,14.75
2018-02-04T04:20:40.999Z,14.73
2018-02-04T04:23:08.534Z,14.77
2018-02-04T04:25:36.054Z,14.74
2018-02-04T04:28:03.605Z,14.72
2018-02-04T04:30:31.515Z,14.73
2018-02-04T04:32:59.042Z,14.70
2018-02-04T04:35:26.741Z,14.69
2018-02-04T04:37:54.632Z,14.69
2018-02-04T04:40:22.151Z,14.68
2018-02-04T04:42:49.723Z,14.67
2018-02-04T04:45:17.525Z,14.57
2018-02-04T04:47:45.200Z,14.66
2018-02-04T04:50:13.251Z,14.66
2018-02-04T04:52:41.422Z,14.63
2018-02-04T04:55:08.952Z,14.63
2018-02-04T04:57:36.467Z,14.59
2018-02-04T05:00:05.896Z,14.58
2018-02-04T05:02:33.401Z,14.58
2018-02-04T05:05:00.992Z,14.58
2018-02-04T05:07:28.511Z,14.58
2018-02-04T05:09:56.043Z,14.56
2018-02-04T05:12:23.773Z,14.56
2018-02-04T05:14:51.371Z,14.56
2018-02-04T05:17:18.904Z,14.55
2018-02-04T05:19:46.434Z,14.56
2018-02-04T05:22:14.872Z,14.57
2018-02-04T05:24:42.541Z,14.56
2018-02-04T05:27:10.088Z,14.59
2018-02-04T05:29:37.626Z,14.56
2018-02-04T05:32:05.467Z,14.58
2018-02-04T05:34:32.982Z,14.59
2018-02-04T05:37:00.628Z,14.57
2018-02-04T05:39:28.176Z,14.56
2018-02-04T05:41:56.069Z,14.55
2018-02-04T05:44:23.882Z,14.56
2018-02-04T05:46:51.426Z,14.55
2018-02-04T05:49:19.119Z,14.55
2018-02-04T05:51:46.666Z,14.51
2018-02-04T05:54:14.284Z,14.56
2018-02-04T05:56:41.805Z,14.50
2018-02-04T05:59:09.338Z,14.51
2018-02-04T06:01:37.116Z,14.50
2018-02-04T06:04:04.745Z,14.51
2018-02-04T06:06:32.416Z,14.47
2018-02-04T06:08:59.944Z,14.46
2018-02-04T06:11:27.693Z,14.43
2018-02-04T06:13:56.396Z,14.38
2018-02-04T06:16:23.935Z,14.38
2018-02-04T06:18:51.607Z,14.36
2018-02-04T06:21:19.350Z,14.38
2018-02-04T06:23:47.246Z,14.37
2018-02-04T06:26:15.048Z,14.36
2018-02-04T06:28:42.905Z,14.38
2018-02-04T06:31:10.707Z,14.39
2018-02-04T06:33:38.225Z,14.40
2018-02-04T06:36:05.875Z,14.40
2018-02-04T06:38:33.692Z,14.46
2018-02-04T06:41:01.224Z,14.46
2018-02-04T06:43:28.737Z,14.49
2018-02-04T06:45:56.275Z,14.50
2018-02-04T06:48:23.997Z,14.51
2018-02-04T06:50:51.530Z,14.54
2018-02-04T06:53:19.087Z,14.52
2018-02-04T06:55:46.972Z,14.57
2018-02-04T06:58:15.378Z,14.56
2018-02-04T07:00:43.029Z,14.59
2018-02-04T07:03:10.826Z,14.57
2018-02-04T07:05:38.350Z,14.62
2018-02-04T07:08:05.869Z,14.63
2018-02-04T07:10:33.423Z,14.63
2018-02-04T07:13:01.253Z,14.62
2018-02-04T07:15:29.014Z,14.66
2018-02-04T07:17:56.537Z,14.64
2018-02-04T07:20:24.045Z,14.66
2018-02-04T07:22:51.885Z,14.66
2018-02-04T07:25:19.560Z,14.68
2018-02-04T07:27:47.327Z,14.71
2018-02-04T07:30:15.092Z,14.71
2018-02-04T07:32:42.632Z,14.74
2018-02-04T07:35:10.293Z,14.74
2018-02-04T07:37:38.064Z,14.75
2018-02-04T07:40:05.586Z,14.80
2018-02-04T07:42:33.147Z,14.77
2018-02-04T07:45:00.694Z,14.83
2018-02-04T07:47:28.351Z,14.82
2018-02-04T07:49:55.878Z,14.82
2018-02-04T07:52:23.390Z,14.82
2018-02-04T07:54:51.162Z,14.86
2018-02-04T07:57:18.703Z,14.83
2018-02-04T07:59:46.392Z,14.81
2018-02-04T08:02:14.189Z,14.83
2018-02-04T08:04:41.727Z,14.77
2018-02-04T08:07:09.424Z,14.80
2018-02-04T08:09:36.998Z,14.80
2018-02-04T08:12:04.589Z,14.80
2018-02-04T08:14:32.138Z,14.82
2018-02-04T08:16:59.682Z,14.83
2018-02-04T08:19:27.458Z,14.81
2018-02-04T08:21:54.971Z,14.82
2018-02-04T08:24:22.618Z,14.82
2018-02-04T08:26:50.148Z,14.85
2018-02-04T08:29:17.900Z,14.87
2018-02-04T08:31:45.423Z,14.87
2018-02-04T08:34:12.987Z,14.89
2018-02-04T08:36:40.634Z,14.89
2018-02-04T08:39:08.187Z,14.88
2018-02-04T08:41:36.051Z,14.90
2018-02-04T08:44:03.798Z,14.96
2018-02-04T08:46:31.351Z,15.01
2018-02-04T08:48:59.028Z,14.98
2018-02-04T08:51:26.874Z,15.07
2018-02-04T08:53:54.399Z,15.13
2018-02-04T08:56:21.923Z,15.17
2018-02-04T08:58:49.679Z,15.20
2018-02-04T09:01:17.259Z,15.22
2018-02-04T09:03:44.864Z,15.26
2018-02-04T09:06:12.589Z,15.24
2018-02-04T09:08:40.131Z,15.22
2018-02-04T09:11:07.815Z,15.20
2018-02-04T09:13:35.365Z,15.32
2018-02-04T09:16:02.980Z,15.34
2018-02-04T09:18:30.625Z,15.38
2018-02-04T09:20:58.556Z,15.48
2018-02-04T09:23:26.091Z,15.60
2018-02-04T09:25:53.847Z,15.67
2018-02-04T09:28:21.394Z,15.67
2018-02-04T09:30:49.102Z,15.82
2018-02-04T09:33:16.678Z,15.89
2018-02-04T09:35:44.199Z,15.93
2018-02-04T09:38:11.705Z,15.86
2018-02-04T09:40:39.243Z,15.79
2018-02-04T09:43:06.894Z,15.81
2018-02-04T09:45:35.445Z,15.90
2018-02-04T09:48:03.003Z,15.96
2018-02-04T09:50:30.577Z,15.93
2018-02-04T09:52:58.464Z,15.92
2018-02-04T09:55:26.135Z,15.99
2018-02-04T09:57:53.669Z,16.02
2018-02-04T10:00:21.318Z,15.96
2018-02-04T10:02:49.067Z,15.95
2018-02-04T10:05:16.945Z,15.97
2018-02-04T10:07:44.689Z,15.98
2018-02-04T10:10:12.212Z,15.98
2018-02-04T10:12:39.849Z,16.07
2018-02-04T10:15:08.000Z,16.18
2018-02-04T10:17:35.762Z,16.22
2018-02-04T10:20:03.756Z,16.33
2018-02-04T10:22:31.320Z,16.50
2018-02-04T10:24:59.059Z,16.77
2018-02-04T10:27:26.840Z,17.17
2018-02-04T10:29:54.378Z,17.49
2018-02-04T10:32:21.902Z,17.54
2018-02-04T10:34:49.414Z,17.47
2018-02-04T10:37:17.092Z,17.37
2018-02-04T10:39:44.624Z,17.46
2018-02-04T10:42:12.166Z,17.39
2018-02-04T10:44:39.925Z,17.54
2018-02-04T10:47:07.441Z,17.65
2018-02-04T10:49:35.129Z,17.76
2018-02-04T10:52:03.068Z,17.98
2018-02-04T10:54:32.032Z,18.20
2018-02-04T10:56:59.848Z,18.51
2018-02-04T10:59:27.361Z,18.56
2018-02-04T11:01:54.921Z,18.77
2018-02-04T11:04:22.439Z,18.92
2018-02-04T11:06:50.231Z,18.95
2018-02-04T11:09:17.814Z,18.88
2018-02-04T11:11:45.459Z,18.62
2018-02-04T11:14:13.365Z,18.32
2018-02-04T11:16:41.082Z,17.98
2018-02-04T11:19:08.667Z,17.73
2018-02-04T11:21:36.251Z,17.51
2018-02-04T11:24:03.861Z,17.43
2018-02-04T11:26:31.624Z,17.45
2018-02-04T11:28:59.265Z,17.52
2018-02-04T11:31:26.809Z,17.64
2018-02-04T11:33:54.370Z,17.69
2018-02-04T11:36:22.024Z,17.69
2018-02-04T11:38:49.552Z,17.68
2018-02-04T11:41:17.132Z,17.68
2018-02-04T11:43:44.842Z,17.58
2018-02-04T11:46:12.378Z,17.55
2018-02-04T11:48:39.961Z,17.52
2018-02-04T11:51:07.639Z,17.46
2018-02-04T11:53:35.252Z,17.68
2018-02-04T11:56:02.829Z,17.87
2018-02-04T11:58:30.541Z,17.93
2018-02-04T12:00:58.199Z,17.93
2018-02-04T12:03:26.464Z,17.91
2018-02-04T12:05:53.996Z,17.78
2018-02-04T12:08:21.667Z,17.68
2018-02-04T12:10:49.200Z,17.58
2018-02-04T12:13:16.791Z,17.42
2018-02-04T12:15:44.340Z,17.32
2018-02-04T12:18:12.017Z,17.20
2018-02-04T12:20:39.666Z,17.06
2018-02-04T12:23:07.207Z,16.90
2018-02-04T12:25:34.775Z,16.82
2018-02-04T12:28:02.354Z,16.72
2018-02-04T12:30:29.951Z,16.61
2018-02-04T12:32:57.506Z,16.47
2018-02-04T12:35:25.309Z,16.28
2018-02-04T12:37:52.865Z,16.14
2018-02-04T12:40:20.448Z,16.01
2018-02-04T12:42:48.016Z,15.98
2018-02-04T12:45:15.565Z,16.03
2018-02-04T12:47:43.330Z,16.19
2018-02-04T12:50:11.019Z,16.20
2018-02-04T12:52:38.856Z,16.28
2018-02-04T12:55:06.441Z,16.40
2018-02-04T12:57:33.984Z,16.54
2018-02-04T13:00:01.889Z,16.73
2018-02-04T13:02:29.670Z,16.64
2018-02-04T13:04:57.246Z,16.78
2018-02-04T13:07:24.870Z,16.82
2018-02-04T13:09:52.587Z,16.78
2018-02-04T13:12:20.144Z,16.87
2018-02-04T13:14:48.763Z,16.87
2018-02-04T13:17:17.250Z,16.87
2018-02-04T13:19:44.932Z,16.85
2018-02-04T13:22:13.162Z,16.82
2018-02-04T13:24:40.810Z,16.99
2018-02-04T13:27:08.343Z,17.09
2018-02-04T13:29:35.948Z,17.26
2018-02-04T13:32:03.506Z,17.18
2018-02-04T13:34:31.054Z,17.08
2018-02-04T13:36:58.614Z,16.95
2018-02-04T13:39:26.157Z,16.86
2018-02-04T13:41:53.690Z,16.78
2018-02-04T13:44:21.243Z,16.75
2018-02-04T13:46:48.822Z,16.68
2018-02-04T13:49:16.391Z,16.66
2018-02-04T13:51:43.951Z,16.63
2018-02-04T13:54:11.502Z,16.56
2018-02-04T13:56:39.065Z,16.50
2018-02-04T13:59:06.683Z,16.51
2018-02-04T14:01:34.621Z,16.49
2018-02-04T14:04:02.295Z,16.43
2018-02-04T14:06:29.885Z,16.40
2018-02-04T14:08:57.501Z,16.27
2018-02-04T14:11:25.022Z,16.14
2018-02-04T14:13:52.570Z,16.02
2018-02-04T14:16:20.133Z,15.91
2018-02-04T14:18:47.718Z,15.84
2018-02-04T14:21:15.260Z,15.75
2018-02-04T14:23:42.854Z,15.66
2018-02-04T14:26:10.465Z,15.58
2018-02-04T14:28:38.049Z,15.53
2018-02-04T14:31:05.622Z,15.53
2018-02-04T14:33:33.258Z,15.50
2018-02-04T14:36:00.814Z,15.44
2018-02-04T14:38:28.378Z,15.35
2018-02-04T14:40:55.928Z,15.30
2018-02-04T14:43:23.524Z,15.24
2018-02-04T14:45:51.055Z,15.25
2018-02-04T14:48:18.987Z,15.14
2018-02-04T14:50:46.577Z,15.10
2018-02-04T14:53:14.280Z,15.05
2018-02-04T14:55:41.898Z,14.98
2018-02-04T14:58:09.515Z,14.93
2018-02-04T15:00:37.099Z,14.86
2018-02-04T15:03:05.494Z,14.86
2018-02-04T15:05:33.274Z,14.80
2018-02-04T15:08:00.876Z,14.64
2018-02-04T15:10:28.444Z,14.52
2018-02-04T15:12:56.052Z,14.46
2018-02-04T15:15:23.900Z,14.37
2018-02-04T15:17:51.464Z,14.21
2018-02-04T15:20:19.367Z,14.14
2018-02-04T15:22:46.959Z,14.05
2018-02-04T15:25:14.598Z,14.00
2018-02-04T15:27:42.189Z,13.89
2018-02-04T15:30:10.063Z,13.90
2018-02-04T15:32:37.648Z,13.85
2018-02-04T15:35:05.233Z,13.80
2018-02-04T15:37:32.880Z,13.68
2018-02-04T15:40:00.489Z,13.52
2018-02-04T15:42:28.187Z,13.50
2018-02-04T15:44:55.995Z,13.52
2018-02-04T15:47:23.560Z,13.50
2018-02-04T15:49:51.183Z,13.47
2018-02-04T15:52:19.140Z,13.50
2018-02-04T15:54:47.120Z,13.33
2018-02-04T15:57:14.772Z,13.03
2018-02-04T15:59:42.694Z,13.07
2018-02-04T16:02:10.301Z,13.04
2018-02-04T16:04:37.892Z,12.97
2018-02-04T16:07:05.709Z,12.95
2018-02-04T16:09:33.319Z,12.88
2018-02-04T16:12:00.912Z,12.93
2018-02-04T16:14:28.589Z,12.90
2018-02-04T16:16:56.155Z,12.92
2018-02-04T16:19:23.739Z,12.87
2018-02-04T16:21:51.352Z,12.87
2018-02-04T16:24:19.157Z,12.88
2018-02-04T16:26:46.829Z,12.88
2018-02-04T16:29:14.730Z,12.89
2018-02-04T16:31:43.052Z,12.85
2018-02-04T16:34:10.776Z,12.85
2018-02-04T16:36:38.448Z,12.88
2018-02-04T16:39:06.050Z,12.85
2018-02-04T16:41:33.614Z,12.85
2018-02-04T16:44:01.247Z,12.82
2018-02-04T16:46:28.855Z,12.80
2018-02-04T16:48:57.071Z,12.79
2018-02-04T16:51:25.451Z,12.78
2018-02-04T16:53:53.228Z,12.79
2018-02-04T16:56:20.789Z,12.76
2018-02-04T16:58:48.386Z,12.76
2018-02-04T17:01:16.758Z,13.09
2018-02-04T17:03:44.309Z,13.08
2018-02-04T17:06:11.903Z,13.01
2018-02-04T17:08:39.478Z,12.93
2018-02-04T17:11:07.133Z,12.82
2018-02-04T17:13:34.934Z,12.76
2018-02-04T17:16:04.578Z,12.72
2018-02-04T17:18:33.000Z,12.66
2018-02-04T17:21:02.297Z,12.62
2018-02-04T17:23:29.879Z,12.58
2018-02-04T17:25:57.512Z,12.53
2018-02-04T17:28:25.092Z,12.47
2018-02-04T17:30:52.725Z,12.49
2018-02-04T17:33:20.296Z,12.45
2018-02-04T17:35:48.855Z,12.45
2018-02-04T17:38:16.443Z,12.45
2018-02-04T17:40:44.217Z,12.43
2018-02-04T17:43:11.788Z,13.09
2018-02-04T17:45:39.392Z,13.06
2018-02-04T17:48:07.066Z,12.95
2018-02-04T17:50:35.089Z,12.85
2018-02-04T17:53:02.671Z,12.82
2018-02-04T17:55:31.140Z,12.84
2018-02-04T17:57:58.689Z,13.04
2018-02-04T18:00:27.360Z,13.20
2018-02-04T18:02:54.996Z,13.18
2018-02-04T18:05:22.728Z,13.10
2018-02-04T18:07:51.016Z,13.02
2018-02-04T18:10:19.194Z,12.94
2018-02-04T18:12:48.211Z,12.87
2018-02-04T18:15:16.445Z,12.78
2018-02-04T18:17:44.446Z,12.72
2018-02-04T18:20:13.007Z,12.67
2018-02-04T18:22:40.596Z,12.61
2018-02-04T18:25:08.197Z,12.55
2018-02-04T18:27:35.857Z,12.50
2018-02-04T18:30:08.855Z,12.47
2018-02-04T18:32:37.183Z,12.43
2018-02-04T18:35:05.591Z,12.39
2018-02-04T18:37:33.380Z,12.35
2018-02-04T18:40:01.019Z,12.32
2018-02-04T18:42:28.686Z,12.29
2018-02-04T18:44:57.217Z,12.25
2018-02-04T18:47:24.848Z,12.23
2018-02-04T18:49:52.721Z,12.22
2018-02-04T18:52:20.449Z,12.23
2018-02-04T18:54:48.151Z,12.22
2018-02-04T18:57:15.797Z,12.22
2018-02-04T18:59:43.615Z,12.23
2018-02-04T19:02:12.242Z,12.23
2018-02-04T19:04:39.853Z,12.23
2018-02-04T19:07:07.477Z,12.22
2018-02-04T19:09:36.064Z,12.21
2018-02-04T19:12:03.871Z,12.19
2018-02-04T19:14:31.478Z,12.17
2018-02-04T19:16:59.061Z,12.16
2018-02-04T19:19:26.787Z,12.16
2018-02-04T19:21:54.725Z,12.16
2018-02-04T19:24:23.287Z,12.17
2018-02-04T19:26:50.892Z,12.16
2018-02-04T19:29:19.156Z,12.19
2018-02-04T19:31:46.842Z,12.19
2018-02-04T19:34:14.440Z,12.21
2018-02-04T19:36:45.146Z,12.21
2018-02-04T19:39:12.793Z,12.21
2018-02-04T19:41:40.948Z,12.21
2018-02-04T19:44:08.824Z,12.20
2018-02-04T19:46:36.412Z,12.19
2018-02-04T19:49:04.686Z,12.17
2018-02-04T19:51:32.729Z,12.16
2018-02-04T19:54:00.495Z,12.14
2018-02-04T19:56:28.242Z,12.13
2018-02-04T19:58:56.173Z,12.11
2018-02-04T20:01:24.221Z,12.10
2018-02-04T20:03:51.916Z,12.08
2018-02-04T20:06:19.500Z,12.05
2018-02-04T20:08:47.156Z,12.05
2018-02-04T20:11:14.960Z,12.05
2018-02-04T20:13:42.573Z,12.04
2018-02-04T20:16:10.164Z,12.02
2018-02-04T20:18:38.678Z,12.01
2018-02-04T20:21:06.274Z,12.01
2018-02-04T20:23:33.842Z,11.93
2018-02-04T20:26:01.455Z,11.98
2018-02-04T20:28:29.246Z,11.97
2018-02-04T20:30:56.968Z,11.95
2018-02-04T20:33:25.282Z,11.94
2018-02-04T20:35:53.293Z,11.91
2018-02-04T20:38:21.081Z,11.89
2018-02-04T20:40:48.760Z,11.86
2018-02-04T20:43:16.368Z,11.85
2018-02-04T20:45:43.991Z,11.77
2018-02-04T20:48:11.632Z,11.64
2018-02-04T20:50:39.229Z,11.79
2018-02-04T20:53:06.851Z,11.77
2018-02-04T20:55:34.484Z,11.73
2018-02-04T20:58:02.050Z,11.71
2018-02-04T21:00:29.672Z,11.68
2018-02-04T21:02:57.256Z,11.65
2018-02-04T21:05:25.893Z,11.63
2018-02-04T21:07:54.561Z,11.60
2018-02-04T21:10:22.255Z,11.58
2018-02-04T21:12:49.899Z,11.56
2018-02-04T21:15:17.966Z,11.51
2018-02-04T21:17:46.149Z,11.51
2018-02-04T21:20:14.353Z,11.50
2018-02-04T21:22:41.959Z,11.49
2018-02-04T21:25:09.527Z,11.48
2018-02-04T21:27:37.465Z,11.48
2018-02-04T21:30:09.247Z,11.49
2018-02-04T21:32:38.445Z,11.47
2018-02-04T21:35:40.287Z,11.48
2018-02-04T21:38:16.780Z,11.45
2018-02-04T21:40:44.349Z,11.45
2018-02-04T21:43:11.960Z,11.44
2018-02-04T21:45:40.454Z,11.43
2018-02-04T21:50:53.317Z,11.41
2018-02-04T21:53:23.254Z,11.40
2018-02-04T21:55:50.762Z,11.40
2018-02-04T21:58:18.367Z,11.39
2018-02-04T22:00:45.950Z,11.38
2018-02-04T22:03:13.477Z,11.28
2018-02-04T22:05:41.010Z,11.38
2018-02-04T22:08:09.509Z,11.39
2018-02-04T22:14:03.692Z,11.41
2018-02-04T22:16:31.438Z,11.40
2018-02-04T22:18:58.959Z,11.42
2018-02-04T22:21:26.563Z,11.41
2018-02-04T22:27:34.645Z,11.38
2018-02-04T22:30:12.486Z,11.37
2018-02-04T22:32:40.361Z,11.36
2018-02-04T22:35:07.984Z,11.34
2018-02-04T22:37:35.668Z,11.27
2018-02-04T22:40:04.291Z,11.31
2018-02-04T22:42:31.869Z,11.30
2018-02-04T22:45:26.782Z,11.29
2018-02-04T22:47:54.575Z,11.29
2018-02-04T22:50:22.207Z,11.29
2018-02-04T22:52:49.769Z,11.29
2018-02-04T22:55:17.292Z,11.28
2018-02-04T22:57:44.848Z,11.28
2018-02-04T23:00:44.770Z,11.29
2018-02-04T23:03:27.690Z,11.30
2018-02-04T23:05:55.297Z,11.29
2018-02-04T23:08:29.943Z,11.30
2018-02-04T23:10:57.528Z,11.31
2018-02-04T23:13:25.424Z,11.32
2018-02-04T23:16:14.616Z,11.33
2018-02-04T23:18:42.179Z,11.35
2018-02-04T23:21:09.713Z,11.34
2018-02-04T23:23:39.859Z,11.35
2018-02-04T23:26:07.626Z,11.37
2018-02-04T23:28:35.332Z,11.36
2018-02-04T23:31:03.037Z,11.39
2018-02-04T23:33:30.582Z,11.41
2018-02-04T23:36:24.223Z,11.43
2018-02-04T23:42:46.055Z,11.45
2018-02-04T23:47:57.105Z,11.44
2018-02-04T23:50:24.731Z,11.44
2018-02-04T23:55:31.994Z,11.45
2018-02-04T23:58:00.399Z,11.45
